Orbital elements of COSMOS 970 DEB
| Launched | 20 December 1977 |
| Flight ended | – |
| Launch site | Tyuratam Missile and Space Center, Kazakhstan (Also known as Baikonur Cosmodrome) |
| Owner | Commonwealth of Independent States (former USSR) |
| NORAD ID | 65011 |
| Date fetched |
Epoch osculation |
Inc. [°] |
Ecc. | RA asc node [hr] |
Arg Peri. [°] |
Mean anom [°] |
Mean motion [rev/day] |
Abs. mag |
| Date fetched |
Epoch osculation |
Inc. [°] |
Ecc. | RA asc node [hr] |
Arg Peri. [°] |
Mean anom [°] |
Mean motion [rev/day] |
Abs. mag |
| 2026 May 03 17:57 | 2026 Apr 30 13:13:41 | 65.8317 | 0.01240 | 11.6090 | 127.3127 | 305.0788 | 13.77174 | – |
| 2026 May 02 17:57 | 2026 Apr 30 13:13:41 | 65.8317 | 0.01240 | 11.6090 | 127.3127 | 305.0788 | 13.77174 | – |
| 2026 May 01 17:56 | 2026 Apr 30 13:13:41 | 65.8317 | 0.01240 | 11.6090 | 127.3127 | 305.0788 | 13.77174 | – |
| 2026 Apr 30 17:56 | 2026 Apr 30 13:13:41 | 65.8317 | 0.01240 | 11.6090 | 127.3127 | 305.0788 | 13.77174 | – |
| 2026 Apr 29 17:57 | 2026 Apr 20 12:28:02 | 65.8327 | 0.01249 | 13.2677 | 132.4749 | 305.0788 | 13.77174 | – |
| 2026 Apr 28 17:56 | 2026 Apr 20 12:28:02 | 65.8327 | 0.01249 | 13.2677 | 132.4749 | 305.0788 | 13.77174 | – |
| 2026 Apr 27 17:58 | 2026 Apr 20 12:28:02 | 65.8327 | 0.01249 | 13.2677 | 132.4749 | 305.0788 | 13.77174 | – |
| 2026 Apr 26 17:58 | 2026 Apr 20 12:28:02 | 65.8327 | 0.01249 | 13.2677 | 132.4749 | 305.0788 | 13.77174 | – |
| 2026 Apr 25 17:58 | 2026 Apr 20 12:28:02 | 65.8327 | 0.01249 | 13.2677 | 132.4749 | 305.0788 | 13.77174 | – |
| 2026 Apr 24 17:59 | 2026 Apr 20 12:28:02 | 65.8327 | 0.01249 | 13.2677 | 132.4749 | 305.0788 | 13.77174 | – |
| 2026 Apr 23 17:57 | 2026 Apr 19 00:38:38 | 65.8326 | 0.01250 | 13.5145 | 133.2358 | 305.0788 | 13.77174 | – |
| 2026 Apr 22 17:57 | 2026 Apr 19 00:38:38 | 65.8326 | 0.01250 | 13.5145 | 133.2358 | 305.0788 | 13.77174 | – |
| 2026 Apr 21 17:57 | 2026 Apr 19 00:38:38 | 65.8326 | 0.01250 | 13.5145 | 133.2358 | 305.0788 | 13.77174 | – |
| 2026 Apr 20 17:57 | 2026 Apr 19 00:38:38 | 65.8326 | 0.01250 | 13.5145 | 133.2358 | 305.0788 | 13.77174 | – |
| 2026 Apr 19 17:58 | 2026 Apr 19 00:38:38 | 65.8326 | 0.01250 | 13.5145 | 133.2358 | 305.0788 | 13.77174 | – |
| 2026 Apr 18 17:56 | 2026 Apr 11 18:11:41 | 65.8325 | 0.01256 | 14.7164 | 136.9179 | 305.0788 | 13.77174 | – |
| 2026 Apr 16 17:57 | 2026 Apr 11 18:11:41 | 65.8325 | 0.01256 | 14.7164 | 136.9179 | 305.0788 | 13.77174 | – |
| 2026 Apr 14 17:57 | 2026 Apr 11 18:11:41 | 65.8325 | 0.01256 | 14.7164 | 136.9179 | 305.0788 | 13.77174 | – |
| 2026 Apr 13 17:57 | 2026 Apr 11 18:11:41 | 65.8325 | 0.01256 | 14.7164 | 136.9179 | 305.0788 | 13.77174 | – |
| 2026 Apr 12 17:57 | 2026 Apr 07 15:59:12 | 65.8320 | 0.01260 | 15.3930 | 138.9730 | 305.0788 | 13.77174 | – |
| 2026 Apr 11 17:57 | 2026 Apr 07 15:59:12 | 65.8320 | 0.01260 | 15.3930 | 138.9730 | 305.0788 | 13.77174 | – |
| 2026 Apr 10 17:58 | 2026 Apr 07 15:59:12 | 65.8320 | 0.01260 | 15.3930 | 138.9730 | 305.0788 | 13.77174 | – |
| 2026 Apr 09 18:01 | 2026 Apr 07 15:59:12 | 65.8320 | 0.01260 | 15.3930 | 138.9730 | 305.0788 | 13.77174 | – |
| 2026 Apr 08 17:57 | 2026 Apr 07 15:59:12 | 65.8320 | 0.01260 | 15.3930 | 138.9730 | 305.0788 | 13.77174 | – |
| 2026 Apr 07 17:57 | 2026 Apr 01 17:04:01 | 65.8315 | 0.01264 | 16.3777 | 141.9703 | 305.0788 | 13.77174 | – |
| 2026 Apr 06 17:57 | 2026 Apr 01 17:04:01 | 65.8315 | 0.01264 | 16.3777 | 141.9703 | 305.0788 | 13.77174 | – |